createdAt,value
2023-04-10T00:02:25.872Z,101832.53
2023-04-10T00:04:53.013Z,101832.38
2023-04-10T00:07:19.830Z,101836.91
2023-04-10T00:09:46.572Z,101840.22
2023-04-10T00:12:14.592Z,101836.34
2023-04-10T00:14:41.940Z,101831.53
2023-04-10T00:17:08.741Z,101830.34
2023-04-10T00:19:35.712Z,101828.03
2023-04-10T00:22:02.498Z,101834.41
2023-04-10T00:24:29.263Z,101833.53
2023-04-10T00:26:57.485Z,101831.59
2023-04-10T00:29:24.767Z,101825.06
2023-04-10T00:31:51.601Z,101820.72
2023-04-10T00:34:18.281Z,101823.56
2023-04-10T00:36:47.397Z,101817.56
2023-04-10T00:39:14.486Z,101821.91
2023-04-10T00:41:41.551Z,101811.53
2023-04-10T00:44:08.924Z,101801.41
2023-04-10T00:46:38.226Z,101797.28
2023-04-10T00:49:06.419Z,101804.47
2023-04-10T00:51:33.813Z,101809.00
2023-04-10T00:54:02.409Z,101801.66
2023-04-10T00:56:32.041Z,101804.53
2023-04-10T00:58:58.996Z,101796.84
2023-04-10T01:01:26.136Z,101793.03
2023-04-10T01:03:54.795Z,101796.38
2023-04-10T01:06:24.840Z,101792.81
2023-04-10T01:09:29.765Z,101785.47
2023-04-10T01:12:10.126Z,101782.34
2023-04-10T01:15:10.854Z,101775.91
2023-04-10T01:18:02.110Z,101780.06
2023-04-10T01:20:34.886Z,101778.34
2023-04-10T01:23:04.365Z,101772.00
2023-04-10T01:25:53.934Z,101772.53
2023-04-10T01:28:52.954Z,101765.75
2023-04-10T01:31:27.392Z,101764.09
2023-04-10T01:34:02.036Z,101754.78
2023-04-10T01:36:36.010Z,101750.41
2023-04-10T01:39:05.633Z,101755.78
2023-04-10T01:41:34.132Z,101754.78
2023-04-10T01:44:04.411Z,101759.34
2023-04-10T01:46:32.914Z,101748.31
2023-04-10T01:49:02.349Z,101752.84
2023-04-10T01:51:31.261Z,101748.84
2023-04-10T01:54:01.479Z,101745.19
2023-04-10T01:56:29.101Z,101745.00
2023-04-10T01:58:56.664Z,101744.47
2023-04-10T02:01:29.722Z,101739.13
2023-04-10T02:03:58.927Z,101732.78
2023-04-10T02:06:47.518Z,101735.81
2023-04-10T02:09:58.796Z,101726.75
2023-04-10T02:12:55.696Z,101733.44
2023-04-10T02:15:28.670Z,101726.09
2023-04-10T02:17:59.761Z,101731.81
2023-04-10T02:20:27.174Z,101726.44
2023-04-10T02:22:54.374Z,101727.94
2023-04-10T02:25:21.160Z,101734.91
2023-04-10T02:27:49.008Z,101733.28
2023-04-10T02:30:16.601Z,101731.81
2023-04-10T02:32:44.299Z,101729.47
2023-04-10T02:35:12.064Z,101723.28
2023-04-10T02:37:38.829Z,101713.25
2023-04-10T02:40:07.118Z,101717.41
2023-04-10T02:42:42.988Z,101712.53
2023-04-10T02:45:11.081Z,101709.66
2023-04-10T02:47:41.782Z,101718.69
2023-04-10T02:50:08.979Z,101721.00
2023-04-10T02:52:38.697Z,101730.91
2023-04-10T02:55:06.037Z,101729.75
2023-04-10T02:57:36.418Z,101731.63
2023-04-10T03:00:05.320Z,101726.63
2023-04-10T03:02:53.744Z,101725.63
2023-04-10T03:05:21.437Z,101721.63
2023-04-10T03:07:48.250Z,101722.34
2023-04-10T03:10:15.318Z,101712.69
2023-04-10T03:12:42.117Z,101717.03
2023-04-10T03:15:09.177Z,101713.81
2023-04-10T03:17:36.013Z,101710.09
2023-04-10T03:20:02.950Z,101701.13
2023-04-10T03:22:33.121Z,101717.16
2023-04-10T03:25:00.360Z,101717.97
2023-04-10T03:27:27.263Z,101709.66
2023-04-10T03:29:54.066Z,101710.69
2023-04-10T03:32:20.974Z,101711.50
2023-04-10T03:34:47.712Z,101716.50
2023-04-10T03:37:14.423Z,101709.69
2023-04-10T03:39:41.487Z,101704.16
2023-04-10T03:42:08.326Z,101697.50
2023-04-10T03:44:36.885Z,101708.34
2023-04-10T03:47:04.040Z,101707.50
2023-04-10T03:49:31.288Z,101711.19
2023-04-10T03:52:04.195Z,101708.34
2023-04-10T03:54:31.025Z,101707.53
2023-04-10T03:56:58.123Z,101709.06
2023-04-10T03:59:37.392Z,101709.59
2023-04-10T04:02:08.828Z,101705.06
2023-04-10T04:04:36.716Z,101704.53
2023-04-10T04:07:35.855Z,101698.84
2023-04-10T04:10:15.086Z,101697.88
2023-04-10T04:13:00.390Z,101697.38
2023-04-10T04:15:56.484Z,101691.88
2023-04-10T04:18:58.306Z,101692.72
2023-04-10T04:21:38.571Z,101692.88
2023-04-10T04:24:13.014Z,101693.56
2023-04-10T04:27:01.418Z,101696.44
2023-04-10T04:29:48.874Z,101694.06
2023-04-10T04:32:34.069Z,101696.88
2023-04-10T04:35:17.603Z,101697.59
2023-04-10T04:38:20.338Z,101689.22
2023-04-10T04:41:25.852Z,101699.56
2023-04-10T04:44:07.872Z,101693.72
2023-04-10T04:46:49.711Z,101690.56
2023-04-10T04:49:28.303Z,101691.03
2023-04-10T04:52:13.454Z,101697.91
2023-04-10T04:54:43.466Z,101695.91
2023-04-10T04:57:36.740Z,101702.06
2023-04-10T05:00:22.303Z,101705.59
2023-04-10T05:02:49.268Z,101706.06
2023-04-10T05:05:34.787Z,101707.06
2023-04-10T05:08:10.891Z,101714.94
2023-04-10T05:10:57.591Z,101725.94
2023-04-10T05:13:42.737Z,101728.47
2023-04-10T05:16:35.757Z,101717.63
2023-04-10T05:19:22.786Z,101720.78
2023-04-10T05:22:24.918Z,101724.97
2023-04-10T05:25:13.796Z,101728.16
2023-04-10T05:28:04.159Z,101717.28
2023-04-10T05:31:00.318Z,101714.28
2023-04-10T05:33:45.845Z,101716.09
2023-04-10T05:36:32.190Z,101733.47
2023-04-10T05:39:06.359Z,101740.97
2023-04-10T05:41:53.052Z,101734.63
2023-04-10T05:44:30.939Z,101731.44
2023-04-10T05:47:05.377Z,101739.13
2023-04-10T05:49:54.650Z,101740.31
2023-04-10T05:52:46.706Z,101763.00
2023-04-10T05:55:33.855Z,101762.84
2023-04-10T05:58:15.489Z,101773.03
2023-04-10T06:01:00.937Z,101765.34
2023-04-10T06:03:45.030Z,101770.19
2023-04-10T06:06:12.769Z,101771.03
2023-04-10T06:08:40.898Z,101766.31
2023-04-10T06:11:07.762Z,101770.00
2023-04-10T06:13:35.299Z,101769.38
2023-04-10T06:16:03.097Z,101758.31
2023-04-10T06:18:31.204Z,101753.31
2023-04-10T06:21:00.346Z,101765.31
2023-04-10T06:23:27.880Z,101768.16
2023-04-10T06:25:55.618Z,101758.94
2023-04-10T06:28:22.746Z,101762.94
2023-04-10T06:30:54.513Z,101763.56
2023-04-10T06:33:28.829Z,101760.16
2023-04-10T06:35:56.081Z,101759.13
2023-04-10T06:38:23.285Z,101756.22
2023-04-10T06:40:50.516Z,101766.19
2023-04-10T06:43:17.511Z,101779.94
2023-04-10T06:45:44.390Z,101779.53
2023-04-10T06:48:11.415Z,101774.63
2023-04-10T06:50:38.190Z,101770.03
2023-04-10T06:53:04.893Z,101773.13
2023-04-10T06:55:31.691Z,101773.69
2023-04-10T06:57:58.466Z,101769.13
2023-04-10T07:00:25.696Z,101765.16
2023-04-10T07:02:52.530Z,101764.22
2023-04-10T07:05:19.408Z,101774.16
2023-04-10T07:07:47.598Z,101779.78
2023-04-10T07:10:14.350Z,101774.34
2023-04-10T07:12:41.061Z,101769.66
2023-04-10T07:15:08.469Z,101764.31
2023-04-10T07:17:35.554Z,101769.94
2023-04-10T07:20:02.394Z,101767.00
2023-04-10T07:22:29.130Z,101762.94
2023-04-10T07:24:56.407Z,101782.63
2023-04-10T07:27:24.725Z,101800.81
2023-04-10T07:29:55.380Z,101794.53
2023-04-10T07:32:22.823Z,101794.47
2023-04-10T07:34:49.771Z,101788.09
2023-04-10T07:37:18.083Z,101789.28
2023-04-10T07:39:45.314Z,101800.69
2023-04-10T07:42:12.059Z,101807.25
2023-04-10T07:44:38.786Z,101805.47
2023-04-10T07:47:05.506Z,101805.66
2023-04-10T07:49:32.289Z,101804.75
2023-04-10T07:51:59.034Z,101800.00
2023-04-10T07:54:25.818Z,101796.59
2023-04-10T07:56:53.307Z,101804.91
2023-04-10T07:59:20.133Z,101801.00
2023-04-10T08:01:46.935Z,101808.38
2023-04-10T08:04:13.892Z,101811.34
2023-04-10T08:06:40.794Z,101820.41
2023-04-10T08:09:07.513Z,101815.97
2023-04-10T08:11:37.938Z,101813.91
2023-04-10T08:14:05.898Z,101808.34
2023-04-10T08:16:35.421Z,101813.28
2023-04-10T08:19:03.004Z,101816.25
2023-04-10T08:21:32.024Z,101821.03
2023-04-10T08:24:00.960Z,101823.69
2023-04-10T08:26:28.401Z,101819.28
2023-04-10T08:29:00.842Z,101822.53
2023-04-10T08:31:29.029Z,101818.94
2023-04-10T08:33:56.753Z,101823.03
2023-04-10T08:36:23.927Z,101820.81
2023-04-10T08:38:50.692Z,101825.41
2023-04-10T08:41:18.933Z,101822.97
2023-04-10T08:43:46.426Z,101827.22
2023-04-10T08:46:16.481Z,101831.84
2023-04-10T08:48:46.944Z,101824.19
2023-04-10T08:51:26.396Z,101833.47
2023-04-10T08:53:59.140Z,101828.81
2023-04-10T08:56:26.927Z,101831.13
2023-04-10T08:58:53.977Z,101839.44
2023-04-10T09:01:21.889Z,101845.28
2023-04-10T09:03:48.885Z,101838.88
2023-04-10T09:06:15.810Z,101841.56
2023-04-10T09:08:42.536Z,101847.59
2023-04-10T09:11:09.399Z,101860.97
2023-04-10T09:13:38.855Z,101859.19
2023-04-10T09:16:06.579Z,101851.97
2023-04-10T09:18:45.467Z,101850.19
2023-04-10T09:21:15.586Z,101856.88
2023-04-10T09:23:44.599Z,101862.09
2023-04-10T09:26:26.097Z,101854.84
2023-04-10T09:28:57.702Z,101860.28
2023-04-10T09:31:32.280Z,101856.38
2023-04-10T09:34:15.379Z,101856.97
2023-04-10T09:36:54.190Z,101865.09
2023-04-10T09:39:21.490Z,101865.06
2023-04-10T09:41:53.250Z,101866.31
2023-04-10T09:44:32.750Z,101879.63
2023-04-10T09:47:16.156Z,101872.75
2023-04-10T09:49:46.597Z,101875.66
2023-04-10T09:52:26.455Z,101880.63
2023-04-10T09:54:54.632Z,101876.25
2023-04-10T09:57:22.856Z,101874.19
2023-04-10T09:59:52.310Z,101879.34
2023-04-10T10:02:21.221Z,101877.53
2023-04-10T10:04:49.556Z,101882.91
2023-04-10T10:07:17.704Z,101879.56
2023-04-10T10:09:48.154Z,101881.88
2023-04-10T10:12:34.480Z,101883.94
2023-04-10T10:15:31.368Z,101882.25
2023-04-10T10:18:22.528Z,101886.81
2023-04-10T10:20:51.095Z,101886.63
2023-04-10T10:23:18.338Z,101885.16
2023-04-10T10:25:46.224Z,101882.69
2023-04-10T10:28:14.692Z,101887.19
2023-04-10T10:30:42.587Z,101888.22
2023-04-10T10:33:10.772Z,101894.88
2023-04-10T10:35:37.871Z,101889.09
2023-04-10T10:38:05.457Z,101899.66
2023-04-10T10:40:53.928Z,101898.19
2023-04-10T10:43:32.797Z,101897.41
2023-04-10T10:46:04.250Z,101898.81
2023-04-10T10:48:31.088Z,101900.69
2023-04-10T10:51:00.436Z,101896.09
2023-04-10T10:53:40.598Z,101890.09
2023-04-10T10:56:34.194Z,101900.03
2023-04-10T10:59:02.095Z,101896.31
2023-04-10T11:01:29.163Z,101897.56
2023-04-10T11:03:57.055Z,101903.75
2023-04-10T11:06:51.315Z,101903.25
2023-04-10T11:09:47.611Z,101897.81
2023-04-10T11:12:15.543Z,101873.28
2023-04-10T11:14:44.344Z,101873.91
2023-04-10T11:17:11.762Z,101868.91
2023-04-10T11:19:59.493Z,101861.03
2023-04-10T11:22:27.887Z,101856.97
2023-04-10T11:24:59.339Z,101868.88
2023-04-10T11:27:43.838Z,101863.00
2023-04-10T11:30:30.637Z,101847.50
2023-04-10T11:32:58.475Z,101846.81
2023-04-10T11:35:27.271Z,101859.72
2023-04-10T11:38:09.311Z,101871.53
2023-04-10T11:40:35.992Z,101870.66
2023-04-10T11:43:14.137Z,101870.38
2023-04-10T11:45:41.243Z,101853.53
2023-04-10T11:48:08.705Z,101862.53
2023-04-10T11:50:36.287Z,101853.59
2023-04-10T11:53:18.220Z,101867.59
2023-04-10T11:55:45.002Z,101873.81
2023-04-10T11:58:24.443Z,101871.13
2023-04-10T12:01:02.901Z,101879.63
2023-04-10T12:03:38.063Z,101872.53
2023-04-10T12:06:11.210Z,101875.84
2023-04-10T12:08:49.300Z,101856.66
2023-04-10T12:11:21.650Z,101862.03
2023-04-10T12:13:51.834Z,101844.59
2023-04-10T12:16:19.134Z,101848.25
2023-04-10T12:18:46.407Z,101841.38
2023-04-10T12:21:13.626Z,101847.03
2023-04-10T12:23:40.590Z,101847.94
2023-04-10T12:26:14.604Z,101844.59
2023-04-10T12:28:55.106Z,101848.50
2023-04-10T12:31:30.013Z,101851.00
2023-04-10T12:33:58.140Z,101849.91
2023-04-10T12:36:30.602Z,101849.84
2023-04-10T12:39:00.413Z,101851.28
2023-04-10T12:41:29.745Z,101842.31
2023-04-10T12:44:15.009Z,101845.38
2023-04-10T12:46:44.486Z,101844.06
2023-04-10T12:49:16.119Z,101848.78
2023-04-10T12:51:47.294Z,101855.41
2023-04-10T12:54:46.680Z,101856.19
2023-04-10T12:57:26.374Z,101858.69
2023-04-10T12:59:53.305Z,101872.91
2023-04-10T13:02:21.314Z,101876.28
2023-04-10T13:04:48.194Z,101885.50
2023-04-10T13:07:14.934Z,101878.78
2023-04-10T13:09:41.727Z,101875.06
2023-04-10T13:12:08.493Z,101865.56
2023-04-10T13:14:35.292Z,101864.78
2023-04-10T13:17:02.195Z,101873.03
2023-04-10T13:19:29.148Z,101874.06
2023-04-10T13:21:55.991Z,101880.19
2023-04-10T13:24:22.664Z,101875.25
2023-04-10T13:26:49.431Z,101869.34
2023-04-10T13:29:16.143Z,101864.34
2023-04-10T13:31:42.986Z,101854.59
2023-04-10T13:34:12.651Z,101854.59
2023-04-10T13:36:39.457Z,101858.06
2023-04-10T13:39:06.458Z,101850.06
2023-04-10T13:41:33.388Z,101851.31
2023-04-10T13:44:00.168Z,101855.91
2023-04-10T13:46:26.951Z,101847.38
2023-04-10T13:48:53.683Z,101839.88
2023-04-10T13:51:20.507Z,101835.34
2023-04-10T13:53:47.330Z,101844.69
2023-04-10T13:56:14.180Z,101844.25
2023-04-10T13:58:40.942Z,101846.09
2023-04-10T14:01:08.564Z,101841.19
2023-04-10T14:03:35.523Z,101836.34
2023-04-10T14:06:02.331Z,101829.16
2023-04-10T14:08:29.102Z,101838.47
2023-04-10T14:10:56.294Z,101836.59
2023-04-10T14:13:22.999Z,101846.81
2023-04-10T14:15:52.081Z,101845.78
2023-04-10T14:18:19.808Z,101847.03
2023-04-10T14:20:46.544Z,101834.19
2023-04-10T14:23:18.292Z,101834.78
2023-04-10T14:25:46.078Z,101826.91
2023-04-10T14:28:22.015Z,101827.06
2023-04-10T14:30:50.861Z,101816.66
2023-04-10T14:33:19.755Z,101823.97
2023-04-10T14:35:47.726Z,101818.13
2023-04-10T14:38:15.601Z,101812.31
2023-04-10T14:40:42.820Z,101817.03
2023-04-10T14:43:09.667Z,101828.91
2023-04-10T14:45:36.428Z,101829.88
2023-04-10T14:48:03.326Z,101829.25
2023-04-10T14:50:32.761Z,101823.69
2023-04-10T14:53:00.452Z,101819.44
2023-04-10T14:55:29.201Z,101824.28
2023-04-10T14:57:58.228Z,101819.91
2023-04-10T15:00:26.087Z,101818.69
2023-04-10T15:02:52.975Z,101819.69
2023-04-10T15:05:19.961Z,101819.53
2023-04-10T15:07:46.669Z,101806.47
2023-04-10T15:10:13.484Z,101805.84
2023-04-10T15:12:40.339Z,101810.88
2023-04-10T15:15:07.676Z,101814.78
2023-04-10T15:17:34.478Z,101808.38
2023-04-10T15:20:01.468Z,101807.50
2023-04-10T15:22:29.349Z,101814.31
2023-04-10T15:24:56.173Z,101809.41
2023-04-10T15:27:23.009Z,101814.34
2023-04-10T15:29:49.903Z,101815.03
2023-04-10T15:32:16.731Z,101825.66
2023-04-10T15:34:44.486Z,101818.06
2023-04-10T15:37:11.707Z,101832.88
2023-04-10T15:39:38.661Z,101824.69
2023-04-10T15:42:07.491Z,101829.78
2023-04-10T15:44:34.293Z,101822.28
2023-04-10T15:47:01.094Z,101824.53
2023-04-10T15:49:37.057Z,101821.66
2023-04-10T15:52:06.251Z,101825.97
2023-04-10T15:54:36.094Z,101830.16
2023-04-10T15:57:03.790Z,101829.38
2023-04-10T15:59:30.746Z,101828.53
2023-04-10T16:01:57.607Z,101825.00
2023-04-10T16:04:24.845Z,101822.53
2023-04-10T16:06:51.777Z,101820.25
2023-04-10T16:11:49.740Z,101816.06
2023-04-10T16:14:18.882Z,101826.69
2023-04-10T16:16:45.993Z,101834.94
2023-04-10T16:19:12.845Z,101832.00
2023-04-10T16:21:39.865Z,101823.09
2023-04-10T16:24:06.920Z,101826.25
2023-04-10T16:26:33.787Z,101826.84
2023-04-10T16:29:00.456Z,101831.66
2023-04-10T16:31:27.200Z,101832.50
2023-04-10T16:33:54.043Z,101817.38
2023-04-10T16:36:20.830Z,101821.53
2023-04-10T16:38:49.844Z,101809.25
2023-04-10T16:41:20.987Z,101818.81
2023-04-10T16:43:48.266Z,101811.31
2023-04-10T16:46:15.139Z,101810.94
2023-04-10T16:48:42.010Z,101812.59
2023-04-10T16:51:15.923Z,101802.59
2023-04-10T16:53:42.979Z,101808.59
2023-04-10T16:56:10.219Z,101806.78
2023-04-10T16:58:37.760Z,101810.94
2023-04-10T17:01:21.431Z,101807.16
2023-04-10T17:03:48.759Z,101813.84
2023-04-10T17:06:16.324Z,101818.38
2023-04-10T17:08:44.181Z,101818.59
2023-04-10T17:11:12.666Z,101811.94
2023-04-10T17:13:42.465Z,101812.56
2023-04-10T17:16:09.753Z,101817.38
2023-04-10T17:18:36.958Z,101817.59
2023-04-10T17:21:04.005Z,101815.50
2023-04-10T17:23:30.893Z,101813.00
2023-04-10T17:25:57.640Z,101825.66
2023-04-10T17:28:24.441Z,101829.16
2023-04-10T17:30:51.192Z,101835.19
2023-04-10T17:33:17.891Z,101836.22
2023-04-10T17:35:44.669Z,101840.34
2023-04-10T17:38:11.405Z,101831.81
2023-04-10T17:40:40.917Z,101831.38
2023-04-10T17:43:08.149Z,101822.63
2023-04-10T17:45:41.174Z,101824.72
2023-04-10T17:48:08.826Z,101833.22
2023-04-10T17:50:35.832Z,101819.34
2023-04-10T17:53:02.695Z,101825.56
2023-04-10T17:55:29.468Z,101830.72
2023-04-10T17:57:58.943Z,101830.66
2023-04-10T18:00:25.821Z,101840.41
2023-04-10T18:02:57.964Z,101840.75
2023-04-10T18:05:25.332Z,101845.00
2023-04-10T18:07:52.127Z,101843.94
2023-04-10T18:10:19.152Z,101849.47
2023-04-10T18:12:45.996Z,101854.44
2023-04-10T18:15:14.459Z,101861.66
2023-04-10T18:17:41.444Z,101864.53
2023-04-10T18:20:08.898Z,101863.19
2023-04-10T18:22:35.702Z,101873.22
2023-04-10T18:25:02.438Z,101868.84
2023-04-10T18:27:34.382Z,101864.88
2023-04-10T18:30:01.054Z,101865.22
2023-04-10T18:32:27.860Z,101857.75
2023-04-10T18:34:54.721Z,101859.66
2023-04-10T18:37:21.494Z,101859.22
2023-04-10T18:39:48.234Z,101868.78
2023-04-10T18:42:14.947Z,101868.97
2023-04-10T18:44:41.731Z,101872.28
2023-04-10T18:47:08.615Z,101868.38
2023-04-10T18:49:35.412Z,101871.88
2023-04-10T18:52:02.254Z,101877.72
2023-04-10T18:54:30.067Z,101888.06
2023-04-10T18:56:56.842Z,101879.59
2023-04-10T18:59:23.638Z,101891.75
2023-04-10T19:01:52.803Z,101898.91
2023-04-10T19:04:19.688Z,101911.31
2023-04-10T19:06:46.894Z,101914.41
2023-04-10T19:09:14.106Z,101917.47
2023-04-10T19:11:41.223Z,101921.81
2023-04-10T19:14:08.052Z,101918.03
2023-04-10T19:16:35.279Z,101924.44
2023-04-10T19:19:02.537Z,101925.66
2023-04-10T19:21:29.379Z,101935.38
2023-04-10T19:23:56.196Z,101945.09
2023-04-10T19:26:23.170Z,101946.97
2023-04-10T19:28:49.914Z,101955.47
2023-04-10T19:31:16.727Z,101963.09
2023-04-10T19:33:43.577Z,101963.91
2023-04-10T19:36:10.461Z,101970.75
2023-04-10T19:38:40.987Z,101970.50
2023-04-10T19:41:18.054Z,101976.44
2023-04-10T19:43:44.952Z,101969.59
2023-04-10T19:46:21.233Z,101971.47
2023-04-10T19:48:49.055Z,101978.63
2023-04-10T19:51:16.167Z,101982.72
2023-04-10T19:53:43.379Z,101992.06
2023-04-10T19:56:10.200Z,101998.00
2023-04-10T19:58:41.205Z,102000.13
2023-04-10T20:01:09.071Z,101996.41
2023-04-10T20:03:36.993Z,101997.44
2023-04-10T20:06:07.390Z,101998.47
2023-04-10T20:08:35.645Z,101997.84
2023-04-10T20:11:06.022Z,102000.75
2023-04-10T20:13:34.401Z,101999.94
2023-04-10T20:16:01.280Z,101989.41
2023-04-10T20:18:28.310Z,101990.13
2023-04-10T20:20:55.145Z,101999.66
2023-04-10T20:23:21.905Z,102000.69
2023-04-10T20:25:48.632Z,101993.84
2023-04-10T20:28:16.814Z,101998.75
2023-04-10T20:30:44.093Z,101998.06
2023-04-10T20:33:11.528Z,102000.13
2023-04-10T20:35:38.541Z,102001.78
2023-04-10T20:38:08.789Z,102000.13
2023-04-10T20:40:36.159Z,102003.81
2023-04-10T20:43:02.926Z,101999.94
2023-04-10T20:45:29.627Z,102001.78
2023-04-10T20:47:57.158Z,102006.00
2023-04-10T20:50:24.002Z,102008.81
2023-04-10T20:52:56.823Z,102007.63
2023-04-10T20:55:23.559Z,102015.22
2023-04-10T20:57:50.598Z,102009.00
2023-04-10T21:00:17.650Z,102008.81
2023-04-10T21:02:44.667Z,102008.81
2023-04-10T21:05:11.976Z,102006.13
2023-04-10T21:07:38.769Z,101999.94
2023-04-10T21:10:05.977Z,102000.75
2023-04-10T21:12:32.716Z,102004.81
2023-04-10T21:14:59.439Z,101997.63
2023-04-10T21:17:31.321Z,102002.53
2023-04-10T21:19:59.338Z,102006.22
2023-04-10T21:22:28.728Z,102000.84
2023-04-10T21:24:56.269Z,101999.59
2023-04-10T21:27:23.002Z,101998.16
2023-04-10T21:29:49.718Z,101995.31
2023-04-10T21:32:16.575Z,101999.00
2023-04-10T21:34:43.337Z,101995.47
2023-04-10T21:37:10.100Z,102005.41
2023-04-10T21:39:40.323Z,102007.63
2023-04-10T21:42:07.212Z,102010.56
2023-04-10T21:44:33.998Z,102006.59
2023-04-10T21:47:00.881Z,102007.25
2023-04-10T21:49:27.624Z,102006.06
2023-04-10T21:51:54.979Z,102002.34
2023-04-10T21:54:21.742Z,102007.34
2023-04-10T21:56:48.446Z,102001.78
2023-04-10T21:59:15.388Z,101992.53
2023-04-10T22:01:42.234Z,102001.78
2023-04-10T22:04:09.217Z,102002.63
2023-04-10T22:06:36.087Z,101990.03
2023-04-10T22:09:02.814Z,101990.38
2023-04-10T22:11:29.579Z,101995.59
2023-04-10T22:14:00.095Z,101989.75
2023-04-10T22:16:29.686Z,101997.00
2023-04-10T22:18:56.722Z,102003.38
2023-04-10T22:21:23.535Z,102004.19
2023-04-10T22:23:50.419Z,101999.00
2023-04-10T22:26:19.468Z,102006.88
2023-04-10T22:28:46.535Z,102010.41
2023-04-10T22:31:20.215Z,102005.19
2023-04-10T22:33:48.734Z,102015.13
2023-04-10T22:36:15.543Z,102021.25
2023-04-10T22:38:42.277Z,102023.44
2023-04-10T22:41:10.839Z,102015.41
2023-04-10T22:43:37.689Z,102017.78
2023-04-10T22:46:04.721Z,102020.22
2023-04-10T22:48:32.676Z,102024.53
2023-04-10T22:50:59.417Z,102021.84
2023-04-10T22:53:27.439Z,102018.34
2023-04-10T22:55:54.188Z,102022.13
2023-04-10T22:58:20.980Z,102021.69
2023-04-10T23:00:47.733Z,102025.19
2023-04-10T23:03:14.492Z,102025.03
2023-04-10T23:05:41.296Z,102023.34
2023-04-10T23:08:08.020Z,102033.69
2023-04-10T23:10:34.783Z,102029.28
2023-04-10T23:13:01.772Z,102038.09
2023-04-10T23:15:28.490Z,102048.09
2023-04-10T23:17:55.871Z,102047.59
2023-04-10T23:20:22.910Z,102043.53
2023-04-10T23:22:49.680Z,102046.53
2023-04-10T23:25:16.424Z,102042.84
2023-04-10T23:27:43.179Z,102044.34
2023-04-10T23:30:10.314Z,102037.56
2023-04-10T23:32:37.077Z,102030.00
2023-04-10T23:35:03.922Z,102038.41
2023-04-10T23:37:33.829Z,102033.06
2023-04-10T23:40:00.773Z,102037.19
2023-04-10T23:42:27.521Z,102032.19
2023-04-10T23:44:54.486Z,102040.25
2023-04-10T23:47:21.328Z,102032.75
2023-04-10T23:49:48.036Z,102033.75
2023-04-10T23:52:14.748Z,102033.00
2023-04-10T23:54:42.925Z,102040.16
2023-04-10T23:57:09.925Z,102036.81
2023-04-10T23:59:36.877Z,102034.47
